createdAt,value
2022-09-20T00:00:33.967Z,9.58
2022-09-20T00:01:34.083Z,9.59
2022-09-20T00:02:34.067Z,9.55
2022-09-20T00:03:33.930Z,9.58
2022-09-20T00:04:33.951Z,9.58
2022-09-20T00:05:33.917Z,9.58
2022-09-20T00:06:33.909Z,9.60
2022-09-20T00:07:33.867Z,9.60
2022-09-20T00:08:33.869Z,9.60
2022-09-20T00:09:33.873Z,9.59
2022-09-20T00:10:33.837Z,9.60
2022-09-20T00:11:33.858Z,9.60
2022-09-20T00:12:33.819Z,9.60
2022-09-20T00:13:33.794Z,9.60
2022-09-20T00:14:33.784Z,9.59
2022-09-20T00:15:33.776Z,9.60
2022-09-20T00:16:33.856Z,9.60
2022-09-20T00:17:33.747Z,9.58
2022-09-20T00:18:33.737Z,9.60
2022-09-20T00:19:33.716Z,9.58
2022-09-20T00:20:33.709Z,9.59
2022-09-20T00:21:33.737Z,9.59
2022-09-20T00:22:33.671Z,9.60
2022-09-20T00:23:33.664Z,9.60
2022-09-20T00:24:33.657Z,9.59
2022-09-20T00:25:33.646Z,9.58
2022-09-20T00:26:33.657Z,9.58
2022-09-20T00:27:33.616Z,9.56
2022-09-20T00:28:33.621Z,9.58
2022-09-20T00:29:33.597Z,9.55
2022-09-20T00:30:33.565Z,9.56
2022-09-20T00:31:33.645Z,9.58
2022-09-20T00:32:33.546Z,9.58
2022-09-20T00:33:33.547Z,9.55
2022-09-20T00:34:33.517Z,9.58
2022-09-20T00:35:33.515Z,9.56
2022-09-20T00:36:33.536Z,9.59
2022-09-20T00:37:33.492Z,9.56
2022-09-20T00:38:33.466Z,9.55
2022-09-20T00:39:33.458Z,9.55
2022-09-20T00:40:33.486Z,9.56
2022-09-20T00:41:33.456Z,9.55
2022-09-20T00:42:33.404Z,9.55
2022-09-20T00:43:33.404Z,9.53
2022-09-20T00:44:33.377Z,9.56
2022-09-20T00:45:33.745Z,9.55
2022-09-20T00:46:33.404Z,9.55
2022-09-20T00:47:33.349Z,9.58
2022-09-20T00:48:33.334Z,9.55
2022-09-20T00:49:33.335Z,9.55
2022-09-20T00:50:33.306Z,9.58
2022-09-20T00:51:33.378Z,9.56
2022-09-20T00:52:33.284Z,9.58
2022-09-20T00:53:33.276Z,9.58
2022-09-20T00:54:33.254Z,9.59
2022-09-20T00:55:33.234Z,9.55
2022-09-20T00:56:33.263Z,9.56
2022-09-20T00:57:33.246Z,9.56
2022-09-20T00:58:33.203Z,9.55
2022-09-20T00:59:33.195Z,9.60
2022-09-20T01:00:33.173Z,9.56
2022-09-20T01:01:33.257Z,9.56
2022-09-20T01:02:33.214Z,9.55
2022-09-20T01:03:33.134Z,9.56
2022-09-20T01:04:33.117Z,9.59
2022-09-20T01:05:33.114Z,9.56
2022-09-20T01:06:33.145Z,9.55
2022-09-20T01:07:33.094Z,9.55
2022-09-20T01:08:33.074Z,9.53
2022-09-20T01:09:33.063Z,9.52
2022-09-20T01:10:33.053Z,9.49
2022-09-20T01:11:33.074Z,9.49
2022-09-20T01:12:33.026Z,9.52
2022-09-20T01:13:33.013Z,9.49
2022-09-20T01:14:33.003Z,9.45
2022-09-20T01:15:33.004Z,9.48
2022-09-20T01:16:33.090Z,9.42
2022-09-20T01:17:32.957Z,9.49
2022-09-20T01:18:32.932Z,9.44
2022-09-20T01:19:32.930Z,9.45
2022-09-20T01:20:32.904Z,9.42
2022-09-20T01:21:32.931Z,9.44
2022-09-20T01:22:32.923Z,9.42
2022-09-20T01:23:32.909Z,9.45
2022-09-20T01:24:32.902Z,9.44
2022-09-20T01:25:32.842Z,9.45
2022-09-20T01:26:32.885Z,9.45
2022-09-20T01:27:32.822Z,9.45
2022-09-20T01:28:32.862Z,9.49
2022-09-20T01:29:32.793Z,9.45
2022-09-20T01:30:32.799Z,9.48
2022-09-20T01:31:32.832Z,9.45
2022-09-20T01:32:32.994Z,9.45
2022-09-20T01:33:32.953Z,9.48
2022-09-20T01:34:32.726Z,9.48
2022-09-20T01:35:32.719Z,9.44
2022-09-20T01:36:32.733Z,9.45
2022-09-20T01:37:32.693Z,9.42
2022-09-20T01:38:32.670Z,9.38
2022-09-20T01:39:32.662Z,9.35
2022-09-20T01:40:32.707Z,9.37
2022-09-20T01:41:32.669Z,9.34
2022-09-20T01:42:32.620Z,9.30
2022-09-20T01:43:32.614Z,9.31
2022-09-20T01:44:32.595Z,9.30
2022-09-20T01:45:32.846Z,9.27
2022-09-20T01:46:32.593Z,9.24
2022-09-20T01:47:32.561Z,9.27
2022-09-20T01:48:32.540Z,9.22
2022-09-20T01:49:32.563Z,9.23
2022-09-20T01:50:32.523Z,9.24
2022-09-20T01:51:32.540Z,9.22
2022-09-20T01:52:32.482Z,9.23
2022-09-20T01:53:32.511Z,9.20
2022-09-20T01:54:32.471Z,9.20
2022-09-20T01:55:32.457Z,9.20
2022-09-20T01:56:32.469Z,9.17
2022-09-20T01:57:32.456Z,9.20
2022-09-20T01:58:32.400Z,9.20
2022-09-20T01:59:32.657Z,9.16
2022-09-20T02:00:32.391Z,9.16
2022-09-20T02:01:32.479Z,9.16
2022-09-20T02:02:32.449Z,9.17
2022-09-20T02:03:32.362Z,9.16
2022-09-20T02:04:32.330Z,9.13
2022-09-20T02:05:33.048Z,9.13
2022-09-20T02:06:32.330Z,9.15
2022-09-20T02:07:32.301Z,9.10
2022-09-20T02:08:32.300Z,9.13
2022-09-20T02:09:32.261Z,9.13
2022-09-20T02:10:32.251Z,9.12
2022-09-20T02:11:32.270Z,9.13
2022-09-20T02:12:33.737Z,9.13
2022-09-20T02:13:32.221Z,9.13
2022-09-20T02:14:32.409Z,9.12
2022-09-20T02:15:32.189Z,9.08
2022-09-20T02:16:32.252Z,9.08
2022-09-20T02:17:32.201Z,9.10
2022-09-20T02:18:32.156Z,9.06
2022-09-20T02:19:32.129Z,9.10
2022-09-20T02:20:32.129Z,9.10
2022-09-20T02:21:32.129Z,9.12
2022-09-20T02:22:32.107Z,9.06
2022-09-20T02:23:32.078Z,9.04
2022-09-20T02:24:32.069Z,9.12
2022-09-20T02:25:32.048Z,9.06
2022-09-20T02:26:32.082Z,9.06
2022-09-20T02:27:32.049Z,9.00
2022-09-20T02:28:32.028Z,9.01
2022-09-20T02:29:32.008Z,9.00
2022-09-20T02:30:32.009Z,9.01
2022-09-20T02:31:32.044Z,9.03
2022-09-20T02:32:31.976Z,9.00
2022-09-20T02:33:31.967Z,9.06
2022-09-20T02:34:32.719Z,9.03
2022-09-20T02:35:31.929Z,9.00
2022-09-20T02:36:31.960Z,9.01
2022-09-20T02:37:31.908Z,9.01
2022-09-20T02:38:31.899Z,9.00
2022-09-20T02:39:31.891Z,8.98
2022-09-20T02:40:31.913Z,9.00
2022-09-20T02:41:31.887Z,9.00
2022-09-20T02:42:31.829Z,9.03
2022-09-20T02:43:31.818Z,9.03
2022-09-20T02:44:31.797Z,9.06
2022-09-20T02:45:31.829Z,9.06
2022-09-20T02:46:31.819Z,9.04
2022-09-20T02:47:31.777Z,9.06
2022-09-20T02:48:31.748Z,9.10
2022-09-20T02:49:31.740Z,9.06
2022-09-20T02:50:31.727Z,9.04
2022-09-20T02:51:31.747Z,9.08
2022-09-20T02:52:31.697Z,9.08
2022-09-20T02:53:31.686Z,9.10
2022-09-20T02:54:31.676Z,9.08
2022-09-20T02:55:31.709Z,9.08
2022-09-20T02:56:31.666Z,9.13
2022-09-20T02:57:31.637Z,9.13
2022-09-20T02:58:31.633Z,9.15
2022-09-20T02:59:31.608Z,9.15
2022-09-20T03:00:32.267Z,9.16
2022-09-20T03:01:31.667Z,9.15
2022-09-20T03:02:31.725Z,9.15
2022-09-20T03:03:31.558Z,9.15
2022-09-20T03:04:31.539Z,9.17
2022-09-20T03:05:31.539Z,9.16
2022-09-20T03:06:31.537Z,9.13
2022-09-20T03:07:31.517Z,9.16
2022-09-20T03:08:31.486Z,9.15
2022-09-20T03:09:31.478Z,9.15
2022-09-20T03:10:31.459Z,9.16
2022-09-20T03:11:31.476Z,9.13
2022-09-20T03:12:31.468Z,9.16
2022-09-20T03:13:31.423Z,9.13
2022-09-20T03:14:32.177Z,9.10
2022-09-20T03:15:31.415Z,9.13
2022-09-20T03:16:31.491Z,9.10
2022-09-20T03:17:31.376Z,9.08
2022-09-20T03:18:31.366Z,9.13
2022-09-20T03:19:31.369Z,9.03
2022-09-20T03:20:31.327Z,9.04
2022-09-20T03:21:31.359Z,9.06
2022-09-20T03:22:31.305Z,9.08
2022-09-20T03:23:31.295Z,9.04
2022-09-20T03:24:31.296Z,9.03
2022-09-20T03:25:32.064Z,9.03
2022-09-20T03:26:31.284Z,9.03
2022-09-20T03:27:31.257Z,9.08
2022-09-20T03:28:31.243Z,9.06
2022-09-20T03:29:31.217Z,9.12
2022-09-20T03:30:31.204Z,9.10
2022-09-20T03:31:31.272Z,9.10
2022-09-20T03:32:31.174Z,9.10
2022-09-20T03:33:31.172Z,9.15
2022-09-20T03:34:31.193Z,9.13
2022-09-20T03:35:31.137Z,9.16
2022-09-20T03:36:31.145Z,9.13
2022-09-20T03:37:31.121Z,9.17
2022-09-20T03:38:31.116Z,9.17
2022-09-20T03:39:31.104Z,9.19
2022-09-20T03:40:31.111Z,9.19
2022-09-20T03:41:31.093Z,9.19
2022-09-20T03:42:31.046Z,9.23
2022-09-20T03:43:31.035Z,9.22
2022-09-20T03:44:31.014Z,9.24
2022-09-20T03:45:31.073Z,9.31
2022-09-20T03:46:31.014Z,9.27
2022-09-20T03:47:30.992Z,9.30
2022-09-20T03:48:30.980Z,9.34
2022-09-20T03:49:30.953Z,9.34
2022-09-20T03:50:30.953Z,9.35
2022-09-20T03:51:34.197Z,9.31
2022-09-20T03:52:30.913Z,9.32
2022-09-20T03:53:30.894Z,9.32
2022-09-20T03:54:30.912Z,9.31
2022-09-20T03:55:30.874Z,9.35
2022-09-20T03:56:30.904Z,9.35
2022-09-20T03:57:30.871Z,9.34
2022-09-20T03:58:30.840Z,9.35
2022-09-20T03:59:30.822Z,9.35
2022-09-20T04:00:30.812Z,9.38
2022-09-20T04:01:30.881Z,9.37
2022-09-20T04:02:30.836Z,9.38
2022-09-20T04:03:30.775Z,9.37
2022-09-20T04:04:30.752Z,9.37
2022-09-20T04:05:30.782Z,9.34
2022-09-20T04:06:30.772Z,9.32
2022-09-20T04:07:30.733Z,9.32
2022-09-20T04:08:30.740Z,9.34
2022-09-20T04:09:30.691Z,9.34
2022-09-20T04:10:30.682Z,9.30
2022-09-20T04:11:30.693Z,9.27
2022-09-20T04:12:30.653Z,9.30
2022-09-20T04:13:30.642Z,9.22
2022-09-20T04:14:30.622Z,9.23
2022-09-20T04:15:30.607Z,9.20
2022-09-20T04:16:30.992Z,9.23
2022-09-20T04:17:30.614Z,9.20
2022-09-20T04:18:30.672Z,9.20
2022-09-20T04:19:33.044Z,9.19
2022-09-20T04:20:30.625Z,9.17
2022-09-20T04:21:30.551Z,9.19
2022-09-20T04:22:30.531Z,9.13
2022-09-20T04:23:30.501Z,9.16
2022-09-20T04:24:30.490Z,9.16
2022-09-20T04:25:30.513Z,9.13
2022-09-20T04:26:30.490Z,9.04
2022-09-20T04:27:30.458Z,9.06
2022-09-20T04:28:30.453Z,9.04
2022-09-20T04:29:30.424Z,9.01
2022-09-20T04:30:30.417Z,9.01
2022-09-20T04:31:31.289Z,9.00
2022-09-20T04:32:30.390Z,9.00
2022-09-20T04:33:30.370Z,8.97
2022-09-20T04:34:30.362Z,8.96
2022-09-20T04:35:30.339Z,8.94
2022-09-20T04:36:30.389Z,8.97
2022-09-20T04:37:30.310Z,8.91
2022-09-20T04:38:30.320Z,8.91
2022-09-20T04:39:30.266Z,8.86
2022-09-20T04:40:30.336Z,8.86
2022-09-20T04:41:32.018Z,8.85
2022-09-20T04:42:31.140Z,8.89
2022-09-20T04:43:30.279Z,8.82
2022-09-20T04:44:30.898Z,8.82
2022-09-20T04:45:30.252Z,8.79
2022-09-20T04:46:30.181Z,8.80
2022-09-20T04:47:30.150Z,8.80
2022-09-20T04:48:30.159Z,8.76
2022-09-20T04:49:30.127Z,8.79
2022-09-20T04:50:30.259Z,8.73
2022-09-20T04:51:30.111Z,8.78
2022-09-20T04:52:30.082Z,8.76
2022-09-20T04:53:30.069Z,8.80
2022-09-20T04:54:30.052Z,8.79
2022-09-20T04:55:30.030Z,8.79
2022-09-20T04:56:30.057Z,8.79
2022-09-20T04:57:30.018Z,8.73
2022-09-20T04:58:30.059Z,8.71
2022-09-20T04:59:29.979Z,8.68
2022-09-20T05:00:29.968Z,8.71
2022-09-20T05:01:32.382Z,8.70
2022-09-20T05:02:30.044Z,8.64
2022-09-20T05:03:29.938Z,8.67
2022-09-20T05:04:30.200Z,8.63
2022-09-20T05:05:29.899Z,8.63
2022-09-20T05:06:29.917Z,8.63
2022-09-20T05:07:29.878Z,8.52
2022-09-20T05:08:29.857Z,8.60
2022-09-20T05:09:29.858Z,8.54
2022-09-20T05:10:29.852Z,8.50
2022-09-20T05:11:29.867Z,8.55
2022-09-20T05:12:29.862Z,8.49
2022-09-20T05:13:29.858Z,8.50
2022-09-20T05:14:32.857Z,8.50
2022-09-20T05:15:30.581Z,8.49
2022-09-20T05:16:30.686Z,8.52
2022-09-20T05:17:30.602Z,8.46
2022-09-20T05:18:30.327Z,8.43
2022-09-20T05:19:29.740Z,8.43
2022-09-20T05:20:29.730Z,8.54
2022-09-20T05:21:29.748Z,8.50
2022-09-20T05:22:29.760Z,8.43
2022-09-20T05:23:30.578Z,8.47
2022-09-20T05:24:29.656Z,8.45
2022-09-20T05:25:29.640Z,8.42
2022-09-20T05:26:29.666Z,8.46
2022-09-20T05:27:29.651Z,8.47
2022-09-20T05:28:30.362Z,8.49
2022-09-20T05:29:30.074Z,8.50
2022-09-20T05:30:31.028Z,8.49
2022-09-20T05:31:29.654Z,8.52
2022-09-20T05:32:30.175Z,8.57
2022-09-20T05:33:30.334Z,8.58
2022-09-20T05:34:29.524Z,8.61
2022-09-20T05:35:29.506Z,8.61
2022-09-20T05:36:34.200Z,8.60
2022-09-20T05:37:30.508Z,8.63
2022-09-20T05:39:29.446Z,8.63
2022-09-20T05:40:29.488Z,8.63
2022-09-20T05:41:29.457Z,8.73
2022-09-20T05:42:29.421Z,8.71
2022-09-20T05:43:29.407Z,8.76
2022-09-20T05:44:29.405Z,8.75
2022-09-20T05:45:29.445Z,8.82
2022-09-20T05:46:29.448Z,8.83
2022-09-20T05:47:29.365Z,8.82
2022-09-20T05:48:29.345Z,8.85
2022-09-20T05:49:29.326Z,8.86
2022-09-20T05:50:29.325Z,8.85
2022-09-20T05:51:29.352Z,8.91
2022-09-20T05:52:29.289Z,8.93
2022-09-20T05:53:30.053Z,8.96
2022-09-20T05:54:29.254Z,8.97
2022-09-20T05:55:29.250Z,9.03
2022-09-20T05:56:29.285Z,9.03
2022-09-20T05:57:29.231Z,9.01
2022-09-20T05:58:29.215Z,9.08
2022-09-20T05:59:29.201Z,9.10
2022-09-20T06:00:29.197Z,9.10
2022-09-20T06:01:29.254Z,9.16
2022-09-20T06:02:29.228Z,9.20
2022-09-20T06:03:29.147Z,9.20
2022-09-20T06:04:29.125Z,9.22
2022-09-20T06:05:29.114Z,9.27
2022-09-20T06:06:32.404Z,9.30
2022-09-20T06:07:29.093Z,9.30
2022-09-20T06:08:29.078Z,9.26
2022-09-20T06:09:29.054Z,9.35
2022-09-20T06:10:29.065Z,9.31
2022-09-20T06:11:29.064Z,9.35
2022-09-20T06:12:29.094Z,9.31
2022-09-20T06:13:30.231Z,9.34
2022-09-20T06:14:28.999Z,9.32
2022-09-20T06:15:29.953Z,9.32
2022-09-20T06:16:29.117Z,9.32
2022-09-20T06:17:28.955Z,9.30
2022-09-20T06:18:28.943Z,9.24
2022-09-20T06:19:29.682Z,9.23
2022-09-20T06:20:28.923Z,9.20
2022-09-20T06:21:29.283Z,9.20
2022-09-20T06:22:28.902Z,9.24
2022-09-20T06:23:28.912Z,9.26
2022-09-20T06:24:29.365Z,9.26
2022-09-20T06:25:28.842Z,9.34
2022-09-20T06:26:28.863Z,9.34
2022-09-20T06:27:28.822Z,9.37
2022-09-20T06:28:28.824Z,9.38
2022-09-20T06:29:28.794Z,9.41
2022-09-20T06:30:28.823Z,9.48
2022-09-20T06:31:28.820Z,9.50
2022-09-20T06:32:28.759Z,9.55
2022-09-20T06:33:28.783Z,9.56
2022-09-20T06:34:28.771Z,9.58
2022-09-20T06:35:28.711Z,9.59
2022-09-20T06:36:28.752Z,9.59
2022-09-20T06:37:28.700Z,9.60
2022-09-20T06:38:28.678Z,9.60
2022-09-20T06:39:28.662Z,9.62
2022-09-20T06:40:28.695Z,9.63
2022-09-20T06:41:28.707Z,9.65
2022-09-20T06:42:28.632Z,9.65
2022-09-20T06:43:28.623Z,9.67
2022-09-20T06:44:28.622Z,9.70
2022-09-20T06:45:28.594Z,9.74
2022-09-20T06:46:28.609Z,9.73
2022-09-20T06:47:28.561Z,9.70
2022-09-20T06:48:28.552Z,9.70
2022-09-20T06:49:28.533Z,9.68
2022-09-20T06:50:28.520Z,9.73
2022-09-20T06:51:28.573Z,9.75
2022-09-20T06:52:28.495Z,9.75
2022-09-20T06:53:28.480Z,9.77
2022-09-20T06:54:28.470Z,9.81
2022-09-20T06:55:29.273Z,9.86
2022-09-20T06:56:28.480Z,9.89
2022-09-20T06:57:28.430Z,9.93
2022-09-20T06:58:28.421Z,9.95
2022-09-20T06:59:28.403Z,9.96
2022-09-20T07:00:28.390Z,9.96
2022-09-20T07:01:30.411Z,9.99
2022-09-20T07:02:28.389Z,9.99
2022-09-20T07:03:28.361Z,10.07
2022-09-20T07:04:28.342Z,10.09
2022-09-20T07:05:28.334Z,10.14
2022-09-20T07:06:28.340Z,10.20
2022-09-20T07:07:28.300Z,10.25
2022-09-20T07:08:28.288Z,10.28
2022-09-20T07:09:28.279Z,10.28
2022-09-20T07:10:28.253Z,10.31
2022-09-20T07:11:28.303Z,10.31
2022-09-20T07:12:28.257Z,10.35
2022-09-20T07:13:28.211Z,10.35
2022-09-20T07:14:28.210Z,10.38
2022-09-20T07:15:28.179Z,10.42
2022-09-20T07:16:28.256Z,10.46
2022-09-20T07:17:28.179Z,10.51
2022-09-20T07:18:28.200Z,10.55
2022-09-20T07:19:28.155Z,10.60
2022-09-20T07:20:28.123Z,10.69
2022-09-20T07:21:28.141Z,10.72
2022-09-20T07:22:28.100Z,10.78
2022-09-20T07:23:28.099Z,10.81
2022-09-20T07:24:28.090Z,10.90
2022-09-20T07:25:28.056Z,10.94
2022-09-20T07:26:28.099Z,10.98
2022-09-20T07:27:29.495Z,11.08
2022-09-20T07:28:28.978Z,11.23
2022-09-20T07:29:27.998Z,11.39
2022-09-20T07:30:28.011Z,11.59
2022-09-20T07:31:28.764Z,11.75
2022-09-20T07:32:27.975Z,11.94
2022-09-20T07:33:27.979Z,12.13
2022-09-20T07:34:27.961Z,12.30
2022-09-20T07:35:27.925Z,12.48
2022-09-20T07:36:28.021Z,12.61
2022-09-20T07:37:27.919Z,12.69
2022-09-20T07:38:27.888Z,12.63
2022-09-20T07:39:27.956Z,12.63
2022-09-20T07:40:27.927Z,12.59
2022-09-20T07:41:27.878Z,12.40
2022-09-20T07:42:27.828Z,12.30
2022-09-20T07:43:27.828Z,12.26
2022-09-20T07:44:27.845Z,12.12
2022-09-20T07:45:27.821Z,12.00
2022-09-20T07:46:27.818Z,11.84
2022-09-20T07:47:27.773Z,11.69
2022-09-20T07:48:27.776Z,11.60
2022-09-20T07:49:27.748Z,11.49
2022-09-20T07:50:27.727Z,11.44
2022-09-20T07:51:27.767Z,11.42
2022-09-20T07:52:27.734Z,11.41
2022-09-20T07:53:27.684Z,11.48
2022-09-20T07:54:27.674Z,11.49
2022-09-20T07:55:27.668Z,11.57
2022-09-20T07:56:27.690Z,11.53
2022-09-20T07:57:27.636Z,11.44
2022-09-20T07:58:27.630Z,11.33
2022-09-20T07:59:27.618Z,11.26
2022-09-20T08:00:27.620Z,11.19
2022-09-20T08:01:27.674Z,11.12
2022-09-20T08:02:27.623Z,11.09
2022-09-20T08:03:27.557Z,11.02
2022-09-20T08:04:27.548Z,11.02
2022-09-20T08:05:27.951Z,10.99
2022-09-20T08:06:27.549Z,11.05
2022-09-20T08:07:27.568Z,11.08
2022-09-20T08:08:27.485Z,11.08
2022-09-20T08:09:27.487Z,11.16
2022-09-20T08:10:27.460Z,11.24
2022-09-20T08:11:27.869Z,11.30
2022-09-20T08:14:28.717Z,11.84
2022-09-20T08:15:27.649Z,11.90
2022-09-20T08:16:27.804Z,11.90
2022-09-20T08:17:27.426Z,12.12
2022-09-20T08:18:27.369Z,12.18
2022-09-20T08:19:27.371Z,12.37
2022-09-20T08:20:27.328Z,12.61
2022-09-20T08:21:27.887Z,12.71
2022-09-20T08:22:27.310Z,13.10
2022-09-20T08:23:27.298Z,13.62
2022-09-20T08:24:27.289Z,14.05
2022-09-20T08:25:27.257Z,14.44
2022-09-20T08:26:27.283Z,14.86
2022-09-20T08:27:27.247Z,15.41
2022-09-20T08:28:27.239Z,15.34
2022-09-20T08:29:27.217Z,15.33
2022-09-20T08:30:27.761Z,15.49
2022-09-20T08:31:27.278Z,15.52
2022-09-20T08:32:27.187Z,15.35
2022-09-20T08:33:27.169Z,15.20
2022-09-20T08:34:27.224Z,15.04
2022-09-20T08:35:27.146Z,14.67
2022-09-20T08:36:30.980Z,14.31
2022-09-20T08:37:28.121Z,14.20
2022-09-20T08:40:28.127Z,13.91
2022-09-20T08:41:27.109Z,13.72
2022-09-20T08:42:27.040Z,13.47
2022-09-20T08:43:27.047Z,13.31
2022-09-20T08:44:27.026Z,13.14
2022-09-20T08:45:35.085Z,12.92
2022-09-20T08:46:28.045Z,12.84
2022-09-20T08:47:26.997Z,12.66
2022-09-20T08:48:26.968Z,12.41
2022-09-20T08:49:26.965Z,12.25
2022-09-20T08:50:26.965Z,12.15
2022-09-20T08:51:26.947Z,12.19
2022-09-20T08:52:26.897Z,12.16
2022-09-20T08:53:26.924Z,12.21
2022-09-20T08:54:32.179Z,12.19
2022-09-20T08:55:27.886Z,12.16
2022-09-20T08:56:26.886Z,12.12
2022-09-20T08:57:26.838Z,12.11
2022-09-20T08:58:27.056Z,12.05
2022-09-20T08:59:26.809Z,12.04
2022-09-20T09:00:27.635Z,12.04
2022-09-20T09:01:26.867Z,12.05
2022-09-20T09:02:26.833Z,12.11
2022-09-20T09:03:26.768Z,12.30
2022-09-20T09:04:26.759Z,12.40
2022-09-20T09:05:26.951Z,12.41
2022-09-20T09:06:26.779Z,12.48
2022-09-20T09:07:26.769Z,12.54
2022-09-20T09:08:27.641Z,12.61
2022-09-20T09:09:26.677Z,12.73
2022-09-20T09:10:26.682Z,12.88
2022-09-20T09:11:26.674Z,13.06
2022-09-20T09:12:26.667Z,13.21
2022-09-20T09:13:26.649Z,13.43
2022-09-20T09:14:26.840Z,13.46
2022-09-20T09:15:26.609Z,13.48
2022-09-20T09:16:33.715Z,13.47
2022-09-20T09:17:27.913Z,13.54
2022-09-20T09:18:31.738Z,13.61
2022-09-20T09:19:33.266Z,13.59
2022-09-20T09:20:27.537Z,13.53
2022-09-20T09:21:26.535Z,13.54
2022-09-20T09:22:26.539Z,13.53
2022-09-20T09:23:26.498Z,13.54
2022-09-20T09:24:26.489Z,13.48
2022-09-20T09:25:26.469Z,13.31
2022-09-20T09:26:26.457Z,13.13
2022-09-20T09:27:26.489Z,13.06
2022-09-20T09:28:26.437Z,12.98
2022-09-20T09:29:26.419Z,12.94
2022-09-20T09:30:26.398Z,12.92
2022-09-20T09:31:26.436Z,13.01
2022-09-20T09:32:26.412Z,13.13
2022-09-20T09:33:26.358Z,13.31
2022-09-20T09:34:26.338Z,13.48
2022-09-20T09:35:26.519Z,13.51
2022-09-20T09:36:26.318Z,13.53
2022-09-20T09:37:28.799Z,13.54
2022-09-20T09:38:26.458Z,13.57
2022-09-20T09:39:26.905Z,13.59
2022-09-20T09:40:26.423Z,13.59
2022-09-20T09:41:26.420Z,13.65
2022-09-20T09:42:26.485Z,13.72
2022-09-20T09:43:26.451Z,13.81
2022-09-20T09:44:26.319Z,13.96
2022-09-20T09:45:26.692Z,14.05
2022-09-20T09:46:26.525Z,14.06
2022-09-20T09:47:26.339Z,13.98
2022-09-20T09:48:26.474Z,13.98
2022-09-20T09:49:26.277Z,13.94
2022-09-20T09:50:26.414Z,13.94
2022-09-20T09:51:26.118Z,13.94
2022-09-20T09:52:26.201Z,14.02
2022-09-20T09:53:26.127Z,14.26
2022-09-20T09:54:26.267Z,14.49
2022-09-20T09:55:26.071Z,14.78
2022-09-20T09:56:26.115Z,14.80
2022-09-20T09:57:26.186Z,14.83
2022-09-20T09:58:26.018Z,14.91
2022-09-20T09:59:26.026Z,14.97
2022-09-20T10:00:26.007Z,15.03
2022-09-20T10:01:28.019Z,15.01
2022-09-20T10:02:27.050Z,15.11
2022-09-20T10:03:25.968Z,15.12
2022-09-20T10:04:25.955Z,15.13
2022-09-20T10:05:25.928Z,15.05
2022-09-20T10:06:25.910Z,14.94
2022-09-20T10:07:25.940Z,14.69
2022-09-20T10:08:25.954Z,14.45
2022-09-20T10:09:25.875Z,14.13
2022-09-20T10:10:25.860Z,13.98
2022-09-20T10:11:25.862Z,14.27
2022-09-20T10:12:25.881Z,14.60
2022-09-20T10:13:25.828Z,15.04
2022-09-20T10:14:25.798Z,15.60
2022-09-20T10:15:25.919Z,16.01
2022-09-20T10:16:25.881Z,16.32
2022-09-20T10:17:25.816Z,16.60
2022-09-20T10:18:25.827Z,16.70
2022-09-20T10:19:25.743Z,16.91
2022-09-20T10:20:25.732Z,16.99
2022-09-20T10:21:25.719Z,17.05
2022-09-20T10:22:25.728Z,17.09
2022-09-20T10:24:01.904Z,17.20
2022-09-20T10:24:26.678Z,17.28
2022-09-20T10:25:25.669Z,17.18
2022-09-20T10:26:25.759Z,17.05
2022-09-20T10:27:25.826Z,17.06
2022-09-20T10:28:25.619Z,17.28
2022-09-20T10:29:25.611Z,17.45
2022-09-20T10:30:25.669Z,17.57
2022-09-20T10:31:26.049Z,17.65
2022-09-20T10:32:25.601Z,17.77
2022-09-20T10:33:25.562Z,17.87
2022-09-20T10:34:25.543Z,17.92
2022-09-20T10:35:25.531Z,18.10
2022-09-20T10:36:25.510Z,18.13
2022-09-20T10:37:25.558Z,18.20
2022-09-20T10:38:25.490Z,18.16
2022-09-20T10:39:25.479Z,18.07
2022-09-20T10:40:26.461Z,17.98
2022-09-20T10:41:25.449Z,17.87
2022-09-20T10:42:25.472Z,17.83
2022-09-20T10:43:25.432Z,17.86
2022-09-20T10:44:25.410Z,17.87
2022-09-20T10:45:59.123Z,17.99
2022-09-20T10:46:33.982Z,18.14
2022-09-20T10:47:26.491Z,18.28
2022-09-20T10:48:25.361Z,18.44
2022-09-20T10:49:25.342Z,18.71
2022-09-20T10:50:25.444Z,18.49
2022-09-20T10:51:25.330Z,18.25
2022-09-20T10:52:25.360Z,18.21
2022-09-20T10:53:25.291Z,18.26
2022-09-20T10:54:25.281Z,18.34
2022-09-20T10:55:25.312Z,18.35
2022-09-20T10:56:25.252Z,18.28
2022-09-20T10:57:25.299Z,18.35
2022-09-20T10:58:25.221Z,18.39
2022-09-20T10:59:25.315Z,18.39
2022-09-20T11:00:25.192Z,18.42
2022-09-20T11:01:25.242Z,18.39
2022-09-20T11:02:25.284Z,18.38
2022-09-20T11:03:25.202Z,18.29
2022-09-20T11:04:25.142Z,18.21
2022-09-20T11:05:25.132Z,18.23
2022-09-20T11:06:25.113Z,18.32
2022-09-20T11:07:25.150Z,18.35
2022-09-20T11:08:25.092Z,18.36
2022-09-20T11:09:25.083Z,18.39
2022-09-20T11:10:25.062Z,18.50
2022-09-20T11:11:25.053Z,18.46
2022-09-20T11:12:25.089Z,18.49
2022-09-20T11:13:25.034Z,18.51
2022-09-20T11:14:25.021Z,18.50
2022-09-20T11:15:25.003Z,18.57
2022-09-20T11:16:25.009Z,18.65
2022-09-20T11:17:25.032Z,18.64
2022-09-20T11:18:24.960Z,18.13
2022-09-20T11:19:24.974Z,18.01
2022-09-20T11:20:24.933Z,17.95
2022-09-20T11:21:24.939Z,18.01
2022-09-20T11:22:24.954Z,18.04
2022-09-20T11:23:24.967Z,18.11
2022-09-20T11:24:24.886Z,18.35
2022-09-20T11:25:29.272Z,18.57
2022-09-20T11:26:24.855Z,18.79
2022-09-20T11:27:24.884Z,18.96
2022-09-20T11:28:24.838Z,19.06
2022-09-20T11:29:24.824Z,18.72
2022-09-20T11:30:24.817Z,18.31
2022-09-20T11:31:24.875Z,17.98
2022-09-20T11:32:24.822Z,18.10
2022-09-20T11:33:24.780Z,18.19
2022-09-20T11:34:24.762Z,18.34
2022-09-20T11:35:24.750Z,18.53
2022-09-20T11:36:24.729Z,18.62
2022-09-20T11:37:24.766Z,18.56
2022-09-20T11:38:24.695Z,18.44
2022-09-20T11:39:24.694Z,18.26
2022-09-20T11:40:24.711Z,18.02
2022-09-20T11:41:24.674Z,17.70
2022-09-20T11:42:24.686Z,17.46
2022-09-20T11:43:24.635Z,17.25
2022-09-20T11:44:24.624Z,17.06
2022-09-20T11:45:28.278Z,17.21
2022-09-20T11:46:24.698Z,17.62
2022-09-20T11:47:49.963Z,18.13
2022-09-20T11:48:25.576Z,18.66
2022-09-20T11:49:24.556Z,18.96
2022-09-20T11:50:24.557Z,19.35
2022-09-20T11:51:24.538Z,19.64
2022-09-20T11:52:24.585Z,19.64
2022-09-20T11:53:24.534Z,19.53
2022-09-20T11:54:24.487Z,19.21
2022-09-20T11:55:24.486Z,18.90
2022-09-20T11:56:24.477Z,18.56
2022-09-20T11:57:24.492Z,18.20
2022-09-20T11:58:24.437Z,17.86
2022-09-20T11:59:24.432Z,17.73
2022-09-20T12:00:25.878Z,17.74
2022-09-20T12:01:28.074Z,17.84
2022-09-20T12:02:24.577Z,17.71
2022-09-20T12:03:24.478Z,17.55
2022-09-20T12:04:33.324Z,17.49
2022-09-20T12:05:25.349Z,17.58
2022-09-20T12:06:24.339Z,17.76
2022-09-20T12:07:24.358Z,17.55
2022-09-20T12:08:24.309Z,17.42
2022-09-20T12:09:24.310Z,17.32
2022-09-20T12:10:24.288Z,17.05
2022-09-20T12:11:24.269Z,16.80
2022-09-20T12:12:24.292Z,16.60
2022-09-20T12:13:24.258Z,16.33
2022-09-20T12:14:24.230Z,15.99
2022-09-20T12:15:24.219Z,15.68
2022-09-20T12:16:24.360Z,15.38
2022-09-20T12:17:24.229Z,15.23
2022-09-20T12:18:24.254Z,15.03
2022-09-20T12:19:24.197Z,14.80
2022-09-20T12:20:24.169Z,14.56
2022-09-20T12:21:24.151Z,14.36
2022-09-20T12:22:24.152Z,14.26
2022-09-20T12:23:24.200Z,14.13
2022-09-20T12:24:24.108Z,14.02
2022-09-20T12:25:24.092Z,13.91
2022-09-20T12:26:24.081Z,13.91
2022-09-20T12:27:24.101Z,13.93
2022-09-20T12:28:24.058Z,13.96
2022-09-20T12:29:24.112Z,14.05
2022-09-20T12:30:24.024Z,14.16
2022-09-20T12:31:24.102Z,14.30
2022-09-20T12:32:24.020Z,14.44
2022-09-20T12:33:23.993Z,14.61
2022-09-20T12:34:23.970Z,15.03
2022-09-20T12:35:23.976Z,15.28
2022-09-20T12:36:23.953Z,15.46
2022-09-20T12:37:23.962Z,15.60
2022-09-20T12:38:29.059Z,15.77
2022-09-20T12:39:28.914Z,15.81
2022-09-20T12:40:24.968Z,15.96
2022-09-20T12:41:28.685Z,16.22
2022-09-20T12:42:24.891Z,16.26
2022-09-20T12:43:23.853Z,16.27
2022-09-20T12:44:23.858Z,16.07
2022-09-20T12:45:23.884Z,15.76
2022-09-20T12:46:23.846Z,15.51
2022-09-20T12:47:23.823Z,15.40
2022-09-20T12:48:23.791Z,15.35
2022-09-20T12:49:23.800Z,15.07
2022-09-20T12:50:23.768Z,14.91
2022-09-20T12:51:23.751Z,14.90
2022-09-20T12:52:23.772Z,14.94
2022-09-20T12:53:24.304Z,14.86
2022-09-20T12:54:23.715Z,14.80
2022-09-20T12:55:23.694Z,15.07
2022-09-20T12:56:23.694Z,15.28
2022-09-20T12:57:23.731Z,15.35
2022-09-20T12:58:23.662Z,15.48
2022-09-20T12:59:23.643Z,15.37
2022-09-20T13:00:23.630Z,15.40
2022-09-20T13:01:23.639Z,15.49
2022-09-20T13:02:23.675Z,15.67
2022-09-20T13:03:23.582Z,15.62
2022-09-20T13:04:23.583Z,15.62
2022-09-20T13:05:23.568Z,15.67
2022-09-20T13:06:23.554Z,15.64
2022-09-20T13:07:23.749Z,15.78
2022-09-20T13:08:23.943Z,15.92
2022-09-20T13:09:23.504Z,16.07
2022-09-20T13:10:23.583Z,16.17
2022-09-20T13:11:23.482Z,16.11